createdAt,value
2023-05-13T00:01:28.721Z,10.08
2023-05-13T00:03:57.134Z,10.07
2023-05-13T00:06:25.439Z,10.06
2023-05-13T00:08:53.570Z,10.06
2023-05-13T00:11:21.531Z,10.06
2023-05-13T00:13:49.695Z,10.06
2023-05-13T00:16:17.926Z,10.05
2023-05-13T00:18:45.904Z,10.04
2023-05-13T00:21:14.019Z,10.03
2023-05-13T00:23:41.985Z,10.02
2023-05-13T00:26:09.963Z,10.01
2023-05-13T00:28:38.244Z,10.00
2023-05-13T00:31:06.521Z,9.99
2023-05-13T00:33:34.582Z,9.95
2023-05-13T00:36:02.673Z,9.97
2023-05-13T00:38:30.723Z,9.96
2023-05-13T00:40:58.730Z,9.94
2023-05-13T00:43:26.708Z,9.94
2023-05-13T00:45:54.897Z,9.93
2023-05-13T00:48:24.040Z,9.94
2023-05-13T00:50:52.501Z,9.94
2023-05-13T00:53:20.456Z,9.93
2023-05-13T00:55:48.656Z,9.92
2023-05-13T00:58:18.099Z,9.92
2023-05-13T01:00:57.311Z,9.90
2023-05-13T01:03:46.270Z,9.87
2023-05-13T01:06:21.608Z,9.86
2023-05-13T01:09:25.713Z,9.85
2023-05-13T01:11:58.782Z,9.83
2023-05-13T01:14:34.337Z,9.83
2023-05-13T01:17:18.402Z,9.84
2023-05-13T01:19:56.023Z,9.83
2023-05-13T01:22:24.367Z,9.83
2023-05-13T01:24:52.380Z,9.82
2023-05-13T01:27:20.619Z,9.82
2023-05-13T01:29:49.596Z,9.81
2023-05-13T01:32:22.916Z,9.80
2023-05-13T01:34:52.712Z,9.80
2023-05-13T01:37:22.958Z,9.78
2023-05-13T01:39:52.044Z,9.78
2023-05-13T01:42:20.612Z,9.77
2023-05-13T01:44:48.579Z,9.77
2023-05-13T01:47:16.956Z,9.75
2023-05-13T01:49:45.143Z,9.74
2023-05-13T01:52:13.308Z,9.73
2023-05-13T01:54:41.382Z,9.73
2023-05-13T01:57:11.922Z,9.71
2023-05-13T01:59:40.308Z,9.70
2023-05-13T02:02:08.496Z,9.69
2023-05-13T02:04:36.569Z,9.65
2023-05-13T02:07:05.019Z,9.61
2023-05-13T02:09:34.850Z,9.61
2023-05-13T02:12:03.112Z,9.60
2023-05-13T02:14:31.288Z,9.59
2023-05-13T02:16:59.356Z,9.58
2023-05-13T02:19:28.139Z,9.59
2023-05-13T02:21:56.422Z,9.62
2023-05-13T02:24:25.953Z,9.63
2023-05-13T02:26:55.841Z,9.65
2023-05-13T02:29:23.915Z,9.66
2023-05-13T02:31:52.025Z,9.60
2023-05-13T02:34:19.977Z,9.55
2023-05-13T02:36:48.845Z,9.55
2023-05-13T02:39:17.228Z,9.59
2023-05-13T02:41:45.395Z,9.60
2023-05-13T02:44:13.584Z,9.63
2023-05-13T02:46:44.306Z,9.65
2023-05-13T02:49:13.112Z,9.65
2023-05-13T02:51:41.170Z,9.67
2023-05-13T02:54:09.141Z,9.68
2023-05-13T02:56:37.312Z,9.69
2023-05-13T02:59:05.262Z,9.71
2023-05-13T03:01:33.252Z,9.72
2023-05-13T03:04:01.294Z,9.74
2023-05-13T03:06:29.165Z,9.76
2023-05-13T03:08:57.257Z,9.77
2023-05-13T03:11:26.856Z,9.72
2023-05-13T03:13:54.942Z,9.71
2023-05-13T03:16:23.039Z,9.73
2023-05-13T03:18:51.338Z,9.73
2023-05-13T03:21:19.798Z,9.72
2023-05-13T03:23:48.253Z,9.70
2023-05-13T03:26:16.783Z,9.66
2023-05-13T03:28:46.440Z,9.64
2023-05-13T03:31:15.063Z,9.63
2023-05-13T03:33:43.915Z,9.62
2023-05-13T03:36:12.894Z,9.61
2023-05-13T03:38:41.693Z,9.59
2023-05-13T03:41:10.070Z,9.56
2023-05-13T03:43:38.245Z,9.55
2023-05-13T03:46:09.290Z,9.54
2023-05-13T03:48:38.282Z,9.50
2023-05-13T03:51:06.676Z,9.48
2023-05-13T03:53:34.735Z,9.46
2023-05-13T03:56:02.809Z,9.44
2023-05-13T03:58:30.783Z,9.42
2023-05-13T04:00:59.071Z,9.38
2023-05-13T04:03:28.788Z,9.35
2023-05-13T04:05:56.939Z,9.32
2023-05-13T04:08:24.893Z,9.29
2023-05-13T04:10:53.493Z,9.27
2023-05-13T04:13:21.471Z,9.24
2023-05-13T04:15:50.873Z,9.22
2023-05-13T04:18:18.827Z,9.18
2023-05-13T04:20:46.808Z,9.16
2023-05-13T04:23:15.089Z,9.11
2023-05-13T04:25:43.460Z,9.04
2023-05-13T04:28:11.416Z,8.97
2023-05-13T04:30:43.386Z,8.95
2023-05-13T04:33:11.955Z,8.94
2023-05-13T04:35:43.027Z,8.95
2023-05-13T04:38:12.218Z,8.97
2023-05-13T04:40:40.360Z,9.01
2023-05-13T04:43:12.376Z,9.05
2023-05-13T04:45:47.705Z,9.11
2023-05-13T04:48:16.502Z,9.16
2023-05-13T04:50:48.371Z,9.22
2023-05-13T04:53:17.649Z,9.28
2023-05-13T04:55:50.496Z,9.31
2023-05-13T04:58:18.492Z,9.34
2023-05-13T05:00:46.780Z,9.40
2023-05-13T05:03:15.250Z,9.45
2023-05-13T05:05:43.402Z,9.49
2023-05-13T05:08:12.728Z,9.52
2023-05-13T05:10:40.898Z,9.58
2023-05-13T05:13:10.826Z,9.64
2023-05-13T05:15:39.342Z,9.71
2023-05-13T05:18:08.694Z,9.75
2023-05-13T05:20:38.923Z,9.79
2023-05-13T05:23:10.736Z,9.89
2023-05-13T05:25:39.374Z,9.98
2023-05-13T05:28:09.414Z,10.07
2023-05-13T05:30:40.180Z,10.13
2023-05-13T05:33:13.924Z,10.19
2023-05-13T05:35:42.716Z,10.27
2023-05-13T05:38:14.270Z,10.33
2023-05-13T05:40:44.792Z,10.39
2023-05-13T05:43:13.030Z,10.48
2023-05-13T05:45:41.152Z,10.53
2023-05-13T05:48:12.901Z,10.60
2023-05-13T05:50:41.276Z,10.67
2023-05-13T05:53:11.509Z,10.74
2023-05-13T05:55:40.902Z,10.77
2023-05-13T05:58:10.265Z,10.78
2023-05-13T06:00:39.240Z,10.78
2023-05-13T06:03:07.457Z,10.77
2023-05-13T06:05:36.179Z,10.76
2023-05-13T06:08:04.538Z,10.78
2023-05-13T06:10:32.713Z,10.83
2023-05-13T06:13:00.807Z,10.87
2023-05-13T06:15:30.496Z,10.93
2023-05-13T06:17:59.130Z,10.97
2023-05-13T06:20:27.461Z,11.03
2023-05-13T06:22:55.430Z,11.07
2023-05-13T06:25:23.540Z,11.11
2023-05-13T06:27:51.574Z,11.14
2023-05-13T06:30:23.630Z,11.17
2023-05-13T06:33:01.575Z,11.20
2023-05-13T06:35:31.654Z,11.23
2023-05-13T06:38:00.863Z,11.25
2023-05-13T06:40:29.213Z,11.27
2023-05-13T06:42:59.664Z,11.29
2023-05-13T06:45:32.415Z,11.30
2023-05-13T06:48:00.624Z,11.31
2023-05-13T06:50:28.789Z,11.33
2023-05-13T06:52:57.484Z,11.34
2023-05-13T06:55:25.744Z,11.37
2023-05-13T06:57:54.136Z,11.39
2023-05-13T07:00:22.924Z,11.43
2023-05-13T07:02:51.021Z,11.47
2023-05-13T07:05:19.189Z,11.54
2023-05-13T07:07:47.239Z,11.60
2023-05-13T07:10:15.614Z,11.67
2023-05-13T07:12:43.639Z,11.74
2023-05-13T07:15:11.776Z,11.82
2023-05-13T07:17:40.226Z,11.88
2023-05-13T07:20:09.984Z,11.94
2023-05-13T07:22:38.026Z,12.01
2023-05-13T07:25:06.936Z,12.06
2023-05-13T07:27:34.987Z,12.10
2023-05-13T07:30:03.166Z,12.14
2023-05-13T07:32:31.458Z,12.19
2023-05-13T07:34:59.534Z,12.23
2023-05-13T07:37:27.576Z,12.28
2023-05-13T07:39:55.748Z,12.34
2023-05-13T07:42:24.818Z,12.41
2023-05-13T07:44:52.933Z,12.47
2023-05-13T07:47:21.241Z,12.54
2023-05-13T07:49:50.001Z,12.57
2023-05-13T07:52:18.161Z,12.61
2023-05-13T07:54:46.233Z,12.67
2023-05-13T07:57:14.197Z,12.71
2023-05-13T07:59:44.564Z,12.74
2023-05-13T08:02:13.013Z,12.77
2023-05-13T08:04:40.995Z,12.82
2023-05-13T08:07:10.396Z,12.88
2023-05-13T08:09:38.462Z,12.94
2023-05-13T08:12:07.038Z,13.01
2023-05-13T08:14:36.139Z,13.07
2023-05-13T08:17:06.557Z,13.12
2023-05-13T08:19:36.038Z,13.20
2023-05-13T08:22:04.971Z,13.28
2023-05-13T08:24:33.129Z,13.38
2023-05-13T08:27:01.087Z,13.52
2023-05-13T08:29:29.979Z,13.66
2023-05-13T08:31:58.120Z,13.77
2023-05-13T08:34:26.652Z,13.88
2023-05-13T08:36:54.863Z,14.01
2023-05-13T08:39:23.098Z,14.13
2023-05-13T08:41:53.005Z,14.27
2023-05-13T08:44:28.751Z,14.38
2023-05-13T08:47:08.872Z,14.50
2023-05-13T08:49:37.497Z,14.63
2023-05-13T08:52:06.389Z,14.73
2023-05-13T08:54:34.787Z,14.79
2023-05-13T08:57:03.567Z,14.86
2023-05-13T08:59:31.847Z,14.90
2023-05-13T09:02:03.494Z,14.93
2023-05-13T09:04:34.552Z,14.96
2023-05-13T09:07:02.910Z,14.99
2023-05-13T09:09:31.163Z,15.03
2023-05-13T09:11:59.356Z,15.06
2023-05-13T09:14:32.645Z,15.11
2023-05-13T09:17:04.033Z,15.17
2023-05-13T09:19:32.218Z,15.26
2023-05-13T09:22:00.557Z,15.36
2023-05-13T09:24:28.632Z,15.49
2023-05-13T09:26:57.009Z,15.62
2023-05-13T09:29:30.756Z,15.74
2023-05-13T09:32:01.606Z,15.81
2023-05-13T09:34:34.354Z,15.89
2023-05-13T09:37:08.249Z,15.98
2023-05-13T09:39:41.554Z,16.06
2023-05-13T09:42:17.018Z,16.13
2023-05-13T09:44:46.796Z,16.22
2023-05-13T09:47:16.019Z,16.30
2023-05-13T09:49:45.891Z,16.36
2023-05-13T09:52:17.368Z,16.44
2023-05-13T09:54:45.425Z,16.50
2023-05-13T09:57:14.888Z,16.56
2023-05-13T09:59:42.874Z,16.61
2023-05-13T10:02:15.465Z,16.69
2023-05-13T10:04:43.710Z,16.78
2023-05-13T10:07:13.364Z,16.88
2023-05-13T10:09:44.338Z,16.97
2023-05-13T10:12:15.040Z,17.01
2023-05-13T10:14:43.926Z,17.03
2023-05-13T10:17:13.412Z,17.08
2023-05-13T10:19:42.419Z,17.22
2023-05-13T10:22:11.946Z,17.37
2023-05-13T10:24:41.897Z,17.50
2023-05-13T10:27:11.861Z,17.64
2023-05-13T10:29:40.736Z,17.78
2023-05-13T10:32:09.906Z,17.91
2023-05-13T10:34:39.992Z,18.08
2023-05-13T10:37:31.159Z,18.24
2023-05-13T10:40:17.913Z,18.42
2023-05-13T10:43:17.272Z,18.61
2023-05-13T10:46:07.246Z,18.85
2023-05-13T10:48:48.779Z,18.95
2023-05-13T10:51:18.366Z,18.95
2023-05-13T10:53:51.567Z,19.03
2023-05-13T10:56:22.011Z,19.08
2023-05-13T10:59:02.599Z,19.07
2023-05-13T11:01:35.875Z,18.73
2023-05-13T11:04:05.989Z,18.45
2023-05-13T11:06:42.027Z,18.24
2023-05-13T11:09:15.245Z,18.24
2023-05-13T11:11:47.896Z,18.26
2023-05-13T11:14:18.057Z,18.24
2023-05-13T11:17:02.574Z,18.26
2023-05-13T11:19:33.528Z,18.30
2023-05-13T11:22:16.355Z,18.34
2023-05-13T11:25:03.044Z,18.33
2023-05-13T11:27:33.489Z,18.29
2023-05-13T11:30:06.688Z,18.26
2023-05-13T11:33:00.347Z,18.26
2023-05-13T11:35:30.551Z,18.25
2023-05-13T11:38:01.561Z,18.23
2023-05-13T11:40:31.832Z,18.22
2023-05-13T11:43:00.902Z,18.22
2023-05-13T11:45:30.286Z,18.24
2023-05-13T11:47:59.465Z,18.10
2023-05-13T11:50:33.127Z,17.95
2023-05-13T11:53:02.225Z,17.80
2023-05-13T11:55:36.978Z,17.72
2023-05-13T11:58:05.109Z,17.86
2023-05-13T12:00:35.227Z,17.96
2023-05-13T12:03:10.493Z,18.08
2023-05-13T12:05:40.057Z,18.25
2023-05-13T12:08:11.117Z,18.38
2023-05-13T12:10:45.576Z,18.53
2023-05-13T12:13:14.076Z,18.68
2023-05-13T12:15:42.662Z,18.62
2023-05-13T12:18:11.260Z,18.58
2023-05-13T12:20:39.356Z,18.32
2023-05-13T12:23:07.400Z,18.14
2023-05-13T12:25:36.017Z,18.08
2023-05-13T12:28:19.482Z,17.95
2023-05-13T12:31:04.330Z,17.83
2023-05-13T12:33:34.532Z,17.77
2023-05-13T12:36:35.881Z,17.77
2023-05-13T12:39:09.590Z,17.81
2023-05-13T12:41:42.450Z,17.78
2023-05-13T12:44:14.433Z,17.73
2023-05-13T12:46:53.699Z,17.66
2023-05-13T12:49:22.573Z,17.66
2023-05-13T12:51:55.859Z,17.74
2023-05-13T12:54:23.847Z,17.81
2023-05-13T12:56:52.510Z,17.89
2023-05-13T12:59:20.508Z,17.96
2023-05-13T13:01:50.041Z,18.02
2023-05-13T13:04:19.178Z,18.04
2023-05-13T13:06:47.449Z,18.09
2023-05-13T13:09:15.349Z,18.15
2023-05-13T13:11:43.407Z,18.22
2023-05-13T13:14:11.471Z,18.22
2023-05-13T13:16:39.683Z,18.26
2023-05-13T13:19:07.735Z,18.29
2023-05-13T13:21:35.893Z,18.36
2023-05-13T13:24:04.059Z,18.43
2023-05-13T13:26:32.135Z,18.51
2023-05-13T13:29:00.197Z,18.58
2023-05-13T13:31:28.202Z,18.62
2023-05-13T13:33:58.809Z,18.65
2023-05-13T13:36:27.487Z,18.64
2023-05-13T13:38:55.662Z,18.41
2023-05-13T13:41:25.666Z,18.44
2023-05-13T13:43:53.745Z,18.44
2023-05-13T13:46:21.906Z,18.39
2023-05-13T13:48:50.031Z,18.50
2023-05-13T13:51:18.171Z,18.47
2023-05-13T13:53:46.446Z,18.47
2023-05-13T13:56:14.469Z,18.13
2023-05-13T13:58:42.492Z,18.11
2023-05-13T14:01:11.095Z,18.11
2023-05-13T14:03:39.377Z,17.80
2023-05-13T14:06:08.129Z,17.66
2023-05-13T14:08:36.828Z,17.66
2023-05-13T14:11:05.090Z,17.64
2023-05-13T14:13:33.020Z,17.65
2023-05-13T14:16:01.152Z,17.70
2023-05-13T14:18:29.487Z,17.70
2023-05-13T14:20:57.697Z,17.63
2023-05-13T14:23:25.699Z,17.61
2023-05-13T14:25:53.702Z,17.64
2023-05-13T14:28:23.206Z,17.70
2023-05-13T14:30:53.054Z,17.73
2023-05-13T14:33:21.145Z,17.68
2023-05-13T14:35:49.293Z,17.65
2023-05-13T14:38:17.366Z,17.67
2023-05-13T14:40:45.349Z,17.61
2023-05-13T14:43:13.371Z,17.63
2023-05-13T14:45:41.579Z,17.65
2023-05-13T14:48:09.763Z,17.66
2023-05-13T14:50:38.970Z,17.67
2023-05-13T14:53:08.041Z,17.68
2023-05-13T14:55:36.121Z,17.62
2023-05-13T14:58:04.594Z,17.60
2023-05-13T15:00:33.013Z,17.50
2023-05-13T15:03:01.395Z,17.35
2023-05-13T15:05:29.750Z,17.29
2023-05-13T15:07:59.647Z,17.26
2023-05-13T15:10:27.541Z,17.27
2023-05-13T15:12:55.790Z,17.18
2023-05-13T15:15:23.947Z,17.07
2023-05-13T15:17:52.795Z,17.09
2023-05-13T15:20:21.122Z,17.10
2023-05-13T15:22:49.275Z,17.04
2023-05-13T15:25:17.220Z,17.04
2023-05-13T15:27:45.451Z,17.08
2023-05-13T15:30:13.654Z,17.20
2023-05-13T15:32:41.649Z,17.23
2023-05-13T15:35:09.958Z,17.31
2023-05-13T15:37:38.048Z,17.34
2023-05-13T15:40:06.958Z,17.47
2023-05-13T15:42:35.005Z,17.54
2023-05-13T15:45:03.201Z,17.59
2023-05-13T15:47:31.229Z,17.56
2023-05-13T15:49:59.425Z,17.46
2023-05-13T15:52:27.304Z,17.29
2023-05-13T15:54:55.363Z,17.26
2023-05-13T15:57:23.328Z,17.17
2023-05-13T15:59:51.224Z,17.21
2023-05-13T16:02:19.380Z,17.19
2023-05-13T16:04:47.504Z,17.11
2023-05-13T16:07:15.832Z,17.10
2023-05-13T16:09:43.830Z,17.02
2023-05-13T16:12:11.866Z,17.00
2023-05-13T16:14:39.959Z,16.93
2023-05-13T16:17:08.018Z,16.95
2023-05-13T16:19:36.345Z,16.91
2023-05-13T16:22:34.056Z,16.89
2023-05-13T16:25:07.670Z,16.87
2023-05-13T16:27:36.779Z,16.74
2023-05-13T16:30:07.389Z,16.69
2023-05-13T16:32:35.532Z,16.68
2023-05-13T16:35:04.058Z,16.69
2023-05-13T16:37:34.773Z,16.70
2023-05-13T16:40:03.556Z,16.69
2023-05-13T16:42:31.833Z,16.67
2023-05-13T16:44:59.792Z,16.65
2023-05-13T16:47:28.316Z,16.61
2023-05-13T16:49:56.359Z,16.60
2023-05-13T16:52:25.576Z,16.59
2023-05-13T16:54:56.066Z,16.53
2023-05-13T16:57:25.246Z,16.41
2023-05-13T16:59:53.259Z,16.34
2023-05-13T17:02:21.346Z,16.28
2023-05-13T17:04:49.594Z,16.20
2023-05-13T17:07:17.785Z,16.12
2023-05-13T17:09:45.933Z,16.08
2023-05-13T17:12:14.136Z,16.00
2023-05-13T17:14:42.597Z,15.93
2023-05-13T17:17:10.913Z,15.87
2023-05-13T17:19:39.025Z,15.81
2023-05-13T17:22:07.123Z,15.76
2023-05-13T17:24:35.133Z,15.70
2023-05-13T17:27:03.171Z,15.63
2023-05-13T17:29:31.089Z,15.54
2023-05-13T17:31:59.076Z,15.46
2023-05-13T17:34:27.071Z,15.37
2023-05-13T17:36:55.025Z,15.29
2023-05-13T17:39:23.132Z,15.20
2023-05-13T17:41:51.402Z,15.11
2023-05-13T17:44:20.149Z,15.03
2023-05-13T17:46:48.142Z,14.95
2023-05-13T17:49:16.444Z,14.88
2023-05-13T17:51:44.585Z,14.81
2023-05-13T17:54:12.873Z,14.74
2023-05-13T17:56:41.052Z,14.66
2023-05-13T17:59:09.067Z,14.59
2023-05-13T18:01:37.211Z,14.51
2023-05-13T18:04:05.359Z,14.44
2023-05-13T18:06:33.338Z,14.37
2023-05-13T18:09:02.634Z,14.30
2023-05-13T18:11:30.848Z,14.22
2023-05-13T18:13:58.773Z,14.14
2023-05-13T18:16:26.882Z,14.06
2023-05-13T18:18:55.021Z,13.98
2023-05-13T18:21:24.323Z,13.90
2023-05-13T18:23:52.293Z,13.82
2023-05-13T18:26:20.916Z,13.73
2023-05-13T18:28:49.053Z,13.66
2023-05-13T18:31:17.244Z,13.58
2023-05-13T18:33:45.128Z,13.50
2023-05-13T18:36:13.197Z,13.41
2023-05-13T18:38:41.419Z,13.30
2023-05-13T18:41:09.536Z,13.16
2023-05-13T18:43:38.815Z,13.07
2023-05-13T18:46:06.900Z,13.00
2023-05-13T18:48:35.271Z,12.96
2023-05-13T18:51:03.440Z,12.93
2023-05-13T18:53:31.570Z,12.89
2023-05-13T18:56:00.111Z,12.87
2023-05-13T18:58:28.784Z,12.82
2023-05-13T19:00:56.956Z,12.75
2023-05-13T19:03:27.058Z,12.70
2023-05-13T19:05:55.345Z,12.64
2023-05-13T19:08:23.311Z,12.58
2023-05-13T19:10:51.408Z,12.52
2023-05-13T19:13:21.171Z,12.45
2023-05-13T19:15:49.641Z,12.39
2023-05-13T19:18:18.080Z,12.29
2023-05-13T19:20:46.949Z,12.22
2023-05-13T19:23:15.025Z,12.15
2023-05-13T19:25:43.503Z,12.07
2023-05-13T19:28:16.697Z,11.96
2023-05-13T19:30:44.800Z,11.93
2023-05-13T19:33:13.076Z,11.88
2023-05-13T19:35:42.045Z,11.80
2023-05-13T19:38:10.111Z,11.73
2023-05-13T19:40:38.185Z,11.66
2023-05-13T19:43:06.658Z,11.60
2023-05-13T19:45:34.727Z,11.53
2023-05-13T19:48:02.872Z,11.47
2023-05-13T19:50:31.176Z,11.42
2023-05-13T19:52:59.270Z,11.36
2023-05-13T19:55:27.321Z,11.31
2023-05-13T19:57:55.405Z,11.26
2023-05-13T20:00:23.846Z,11.20
2023-05-13T20:02:52.143Z,11.12
2023-05-13T20:05:20.351Z,11.07
2023-05-13T20:07:48.396Z,11.03
2023-05-13T20:10:16.384Z,10.99
2023-05-13T20:12:44.845Z,10.94
2023-05-13T20:15:13.036Z,10.90
2023-05-13T20:17:41.088Z,10.87
2023-05-13T20:20:10.088Z,10.82
2023-05-13T20:22:38.160Z,10.77
2023-05-13T20:25:07.007Z,10.73
2023-05-13T20:27:35.062Z,10.68
2023-05-13T20:30:03.308Z,10.65
2023-05-13T20:32:31.559Z,10.60
2023-05-13T20:34:59.643Z,10.56
2023-05-13T20:37:29.394Z,10.50
2023-05-13T20:39:57.432Z,10.47
2023-05-13T20:42:26.729Z,10.44
2023-05-13T20:44:54.637Z,10.40
2023-05-13T20:47:22.728Z,10.38
2023-05-13T20:49:50.869Z,10.36
2023-05-13T20:52:18.925Z,10.33
2023-05-13T20:54:47.101Z,10.30
2023-05-13T20:57:15.166Z,10.26
2023-05-13T20:59:43.334Z,10.23
2023-05-13T21:02:11.402Z,10.19
2023-05-13T21:04:39.878Z,10.16
2023-05-13T21:07:07.950Z,10.15
2023-05-13T21:09:36.008Z,10.13
2023-05-13T21:12:04.714Z,10.11
2023-05-13T21:14:32.809Z,10.07
2023-05-13T21:17:03.530Z,10.03
2023-05-13T21:19:31.794Z,9.98
2023-05-13T21:22:03.833Z,9.93
2023-05-13T21:24:32.243Z,9.87
2023-05-13T21:27:00.198Z,9.83
2023-05-13T21:29:30.212Z,9.78
2023-05-13T21:31:58.300Z,9.74
2023-05-13T21:34:26.461Z,9.74
2023-05-13T21:36:54.638Z,9.70
2023-05-13T21:39:23.184Z,9.68
2023-05-13T21:41:51.709Z,9.64
2023-05-13T21:44:19.634Z,9.61
2023-05-13T21:46:47.538Z,9.58
2023-05-13T21:49:15.506Z,9.54
2023-05-13T21:51:43.577Z,9.50
2023-05-13T21:54:11.546Z,9.46
2023-05-13T21:56:39.515Z,9.43
2023-05-13T21:59:07.593Z,9.40
2023-05-13T22:01:36.824Z,9.36
2023-05-13T22:04:04.964Z,9.32
2023-05-13T22:06:33.859Z,9.30
2023-05-13T22:09:02.269Z,9.27
2023-05-13T22:11:30.409Z,9.24
2023-05-13T22:14:00.423Z,9.20
2023-05-13T22:16:28.424Z,9.17
2023-05-13T22:18:59.127Z,9.14
2023-05-13T22:21:27.295Z,9.11
2023-05-13T22:23:55.477Z,9.06
2023-05-13T22:26:23.359Z,9.01
2023-05-13T22:28:51.513Z,8.96
2023-05-13T22:31:19.941Z,8.93
2023-05-13T22:33:48.270Z,8.91
2023-05-13T22:36:16.242Z,8.89
2023-05-13T22:38:44.320Z,8.86
2023-05-13T22:41:12.911Z,8.84
2023-05-13T22:43:40.863Z,8.82
2023-05-13T22:46:08.914Z,8.82
2023-05-13T22:48:36.895Z,8.82
2023-05-13T22:51:04.886Z,8.81
2023-05-13T22:53:33.057Z,8.77
2023-05-13T22:56:01.124Z,8.74
2023-05-13T22:58:28.983Z,8.73
2023-05-13T23:00:56.891Z,8.72
2023-05-13T23:03:24.849Z,8.71
2023-05-13T23:05:52.856Z,8.71
2023-05-13T23:08:20.936Z,8.72
2023-05-13T23:10:49.243Z,8.76
2023-05-13T23:13:17.213Z,8.79
2023-05-13T23:15:45.194Z,8.78
2023-05-13T23:18:13.275Z,8.73
2023-05-13T23:20:41.432Z,8.69
2023-05-13T23:23:09.402Z,8.64
2023-05-13T23:25:37.462Z,8.59
2023-05-13T23:28:05.384Z,8.56
2023-05-13T23:30:33.313Z,8.51
2023-05-13T23:33:01.294Z,8.45
2023-05-13T23:35:30.072Z,8.42
2023-05-13T23:37:58.335Z,8.40
2023-05-13T23:40:26.579Z,8.38
2023-05-13T23:42:54.885Z,8.35
2023-05-13T23:45:22.870Z,8.34
2023-05-13T23:47:50.834Z,8.33
2023-05-13T23:50:19.109Z,8.30
2023-05-13T23:52:51.310Z,8.26
2023-05-13T23:55:19.413Z,8.23
2023-05-13T23:57:48.954Z,8.18
